Time;durP1;ratioP1;P1;durP2;ratioP2;P2;SDS_P1;SDS_P2;PMS_P1;PMS_P2;Temp;Humidity;BMP_temperature;BMP_pressure;BME280_temperature;BME280_humidity;BME280_pressure;Samples;Min_cycle;Max_cycle;Signal;HPM_P1;HPM_P2
2022/05/25 00:00:18;;;;;;;4.17;1.80;;;;;10.10;100802.00;;;;10046623;29;20197;-77
2022/05/25 00:05:21;;;;;;;5.23;2.07;;;;;10.10;100797.00;;;;10046692;29;20696;-78
2022/05/25 00:10:23;;;;;;;4.17;2.00;;;;;10.10;100806.00;;;;10014659;29;20621;-78
2022/05/25 00:15:25;;;;;;;3.70;1.80;;;;;10.00;100807.00;;;;10011119;29;20196;-78
2022/05/25 00:20:27;;;;;;;4.87;2.13;;;;;10.00;100805.00;;;;10056115;29;20556;-78
2022/05/25 00:25:33;;;;;;;4.37;2.30;;;;;10.00;100808.00;;;;10012827;29;20228;-78
2022/05/25 00:30:35;;;;;;;3.00;2.10;;;;;9.90;100818.00;;;;10003904;29;20207;-78
2022/05/25 00:35:38;;;;;;;3.40;2.10;;;;;9.90;100816.00;;;;10061147;29;20645;-78
2022/05/25 00:40:44;;;;;;;4.10;2.03;;;;;9.80;100817.00;;;;10045470;29;20197;-78
2022/05/25 00:46:08;;;;;;;6.57;2.27;;;;;9.70;100824.00;;;;10044374;29;20249;-77
2022/05/25 00:51:15;;;;;;;5.77;2.17;;;;;9.70;100825.00;;;;10028623;29;20205;-78
2022/05/25 00:56:19;;;;;;;2.30;1.60;;;;;9.80;100825.00;;;;10000814;29;20698;-78
2022/05/25 01:01:22;;;;;;;4.60;2.37;;;;;9.80;100818.00;;;;10005923;29;20252;-78
2022/05/25 01:06:26;;;;;;;11.43;3.13;;;;;9.90;100831.00;;;;10014359;29;20208;-78
2022/05/25 01:11:58;;;;;;;5.37;2.73;;;;;10.00;100825.00;;;;10044334;29;20205;-78
2022/05/25 01:17:06;;;;;;;6.60;3.10;;;;;10.10;100821.00;;;;10003611;29;20209;-78
2022/05/25 01:22:27;;;;;;;10.00;3.03;;;;;10.20;100827.00;;;;10028539;29;20293;-78
2022/05/25 01:27:34;;;;;;;4.93;2.57;;;;;10.20;100818.00;;;;10012882;29;20221;-78
2022/05/25 01:32:48;;;;;;;7.23;2.53;;;;;10.30;100821.00;;;;10020385;29;20602;-78
2022/05/25 01:38:04;;;;;;;6.40;2.47;;;;;10.30;100833.00;;;;10060697;29;20200;-78
2022/05/25 01:43:17;;;;;;;3.77;2.20;;;;;10.30;100836.00;;;;10042560;29;20238;-78
2022/05/25 01:48:22;;;;;;;7.03;2.30;;;;;10.20;100836.00;;;;10041686;29;20526;-78
2022/05/25 01:53:31;;;;;;;4.70;2.80;;;;;10.20;100836.00;;;;10043352;29;20201;-77
2022/05/25 01:58:36;;;;;;;9.77;2.83;;;;;10.10;100838.00;;;;10026837;29;20213;-78
2022/05/25 02:09:19;;;;;;;9.37;2.87;;;;;10.00;100846.00;;;;10013720;29;20204;-78
2022/05/25 02:14:33;;;;;;;13.97;2.93;;;;;9.90;100844.00;;;;10038699;29;20193;-78
2022/05/25 02:19:38;;;;;;;11.00;3.27;;;;;9.90;100851.00;;;;10062658;29;20193;-78
2022/05/25 02:24:47;;;;;;;5.53;2.93;;;;;9.80;100854.00;;;;10029136;29;20273;-78
2022/05/25 02:29:52;;;;;;;9.47;4.10;;;;;9.70;100856.00;;;;10012727;29;20212;-78
2022/05/25 02:34:55;;;;;;;7.90;3.03;;;;;9.60;100853.00;;;;10012577;29;21086;-78
2022/05/25 02:40:00;;;;;;;6.30;3.37;;;;;9.60;100863.00;;;;10043951;29;20193;-78
2022/05/25 02:45:02;;;;;;;9.27;3.47;;;;;9.50;100866.00;;;;10042103;29;20257;-78
2022/05/25 02:50:05;;;;;;;5.93;3.30;;;;;9.50;100867.00;;;;10043419;29;20205;-78
2022/05/25 02:55:07;;;;;;;4.63;2.63;;;;;9.50;100871.00;;;;10029488;29;20193;-78
2022/05/25 03:00:10;;;;;;;11.87;3.10;;;;;9.40;100867.00;;;;10025357;29;20201;-78
2022/05/25 03:05:12;;;;;;;7.40;2.90;;;;;9.40;100875.00;;;;10028336;29;20220;-78
2022/05/25 03:10:14;;;;;;;7.20;4.50;;;;;9.40;100883.00;;;;10029300;29;20308;-78
2022/05/25 03:15:20;;;;;;;8.63;4.00;;;;;9.40;100877.00;;;;10028011;29;20197;-78
2022/05/25 03:20:22;;;;;;;6.30;3.77;;;;;9.40;100878.00;;;;10044276;29;20201;-78
2022/05/25 03:25:24;;;;;;;8.83;4.23;;;;;9.50;100886.00;;;;10026292;29;20252;-78
2022/05/25 03:30:26;;;;;;;11.63;3.90;;;;;9.60;100893.00;;;;10053662;29;20249;-78
2022/05/25 03:35:28;;;;;;;9.87;4.63;;;;;9.70;100891.00;;;;10028102;29;20199;-78
2022/05/25 03:40:30;;;;;;;7.80;3.70;;;;;9.90;100901.00;;;;9996030;29;20237;-78
2022/05/25 03:45:32;;;;;;;8.13;3.23;;;;;9.90;100910.00;;;;10011392;29;20225;-78
2022/05/25 03:50:39;;;;;;;6.43;3.70;;;;;10.00;100918.00;;;;10010981;29;20193;-78
2022/05/25 03:55:42;;;;;;;6.53;3.43;;;;;10.10;100917.00;;;;10037869;29;20208;-78
2022/05/25 04:00:44;;;;;;;6.23;3.40;;;;;10.20;100916.00;;;;10021118;29;20237;-78
2022/05/25 04:05:49;;;;;;;6.63;3.10;;;;;10.20;100922.00;;;;10034934;29;20221;-77
2022/05/25 04:10:51;;;;;;;3.27;2.97;;;;;10.40;100922.00;;;;10035266;29;20201;-78
2022/05/25 04:15:53;;;;;;;9.10;3.30;;;;;10.60;100918.00;;;;10053137;29;20204;-78
2022/05/25 04:20:55;;;;;;;8.17;3.40;;;;;10.70;100924.00;;;;10068735;29;20201;-78
2022/05/25 04:25:57;;;;;;;6.50;3.13;;;;;10.80;100922.00;;;;10048672;29;20700;-78
2022/05/25 04:30:59;;;;;;;7.07;3.07;;;;;10.90;100919.00;;;;10011003;29;20204;-78
2022/05/25 04:36:03;;;;;;;3.67;3.10;;;;;11.00;100914.00;;;;10040366;29;20606;-78
2022/05/25 04:41:07;;;;;;;6.20;2.90;;;;;11.00;100924.00;;;;10048653;29;20205;-78
2022/05/25 04:46:11;;;;;;;6.07;2.57;;;;;11.20;100925.00;;;;10032602;29;20711;-78
2022/05/25 04:51:14;;;;;;;10.10;3.17;;;;;11.40;100932.00;;;;10035892;29;20216;-78
2022/05/25 05:01:37;;;;;;;4.50;2.40;;;;;12.20;100928.00;;;;10033469;29;20315;-78
2022/05/25 05:06:39;;;;;;;6.63;2.37;;;;;12.50;100939.00;;;;10021506;29;20677;-78
2022/05/25 05:11:44;;;;;;;7.17;2.60;;;;;12.80;100942.00;;;;10027167;29;20210;-78
2022/05/25 05:16:46;;;;;;;5.73;2.57;;;;;13.20;100950.00;;;;10045562;29;20534;-78
2022/05/25 05:21:59;;;;;;;3.43;2.20;;;;;13.50;100948.00;;;;10027078;29;20368;-78
2022/05/25 05:27:01;;;;;;;4.50;2.30;;;;;13.80;100950.00;;;;10036786;29;20205;-78
2022/05/25 05:32:03;;;;;;;8.67;2.20;;;;;14.20;100964.00;;;;10009815;29;20229;-78
2022/05/25 05:37:09;;;;;;;10.13;2.40;;;;;14.70;100943.00;;;;10036372;29;20205;-78
2022/05/25 05:42:19;;;;;;;4.27;2.53;;;;;15.40;100946.00;;;;10017169;29;20304;-78
2022/05/25 05:47:25;;;;;;;11.20;3.73;;;;;15.90;100936.00;;;;10049007;29;20211;-78
2022/05/25 05:52:27;;;;;;;8.27;2.40;;;;;16.30;100945.00;;;;10002814;29;20224;-78
2022/05/25 05:57:33;;;;;;;4.65;2.50;;;;;16.70;100946.00;;;;10024923;29;20226;-78
2022/05/25 06:02:34;;;;;;;7.35;2.72;;;;;17.00;100957.00;;;;10033325;29;20311;-77
2022/05/25 06:07:37;;;;;;;7.32;2.17;;;;;17.30;100962.00;;;;10015221;29;20197;-77
2022/05/25 06:12:39;;;;;;;8.07;2.58;;;;;17.50;100957.00;;;;10028032;29;20264;-78
2022/05/25 06:23:02;;;;;;;5.82;1.80;;;;;18.00;100976.00;;;;10016945;29;20286;-78
2022/05/25 06:28:04;;;;;;;8.48;1.77;;;;;18.30;100967.00;;;;9981373;29;20284;-78
2022/05/25 06:33:07;;;;;;;6.10;1.90;;;;;18.70;100963.00;;;;10032061;29;20197;-78
2022/05/25 06:38:09;;;;;;;3.88;1.95;;;;;19.00;100978.00;;;;10012631;29;20676;-78
2022/05/25 06:43:10;;;;;;;4.70;2.00;;;;;19.30;100980.00;;;;9985088;29;20227;-78
2022/05/25 06:48:12;;;;;;;4.07;1.60;;;;;19.70;100980.00;;;;10046671;29;20236;-78
2022/05/25 06:53:14;;;;;;;5.38;1.95;;;;;19.80;100996.00;;;;10032982;29;20189;-78
2022/05/25 06:58:16;;;;;;;6.57;2.05;;;;;20.10;100986.00;;;;10031820;29;20613;-78
2022/05/25 07:03:18;;;;;;;3.80;1.50;;;;;20.20;100995.00;;;;10046668;29;20213;-77
2022/05/25 07:08:20;;;;;;;4.00;1.30;;;;;20.20;100995.00;;;;10031870;29;20201;-78
2022/05/25 07:13:22;;;;;;;7.68;1.70;;;;;20.40;100996.00;;;;10032303;29;20197;-79
2022/05/25 07:18:26;;;;;;;6.00;1.90;;;;;20.80;100996.00;;;;10042834;29;20197;-79
2022/05/25 07:23:28;;;;;;;3.72;1.52;;;;;21.20;101009.00;;;;10032224;29;20217;-78
2022/05/25 07:28:30;;;;;;;4.20;1.63;;;;;21.50;101008.00;;;;10039661;29;20208;-78
2022/05/25 07:33:33;;;;;;;3.05;1.50;;;;;21.50;101013.00;;;;10050497;29;20200;-79
2022/05/25 07:38:39;;;;;;;4.65;1.58;;;;;22.30;101013.00;;;;10070187;29;20684;-78
2022/05/25 07:43:42;;;;;;;6.32;1.52;;;;;21.70;101020.00;;;;10022561;29;20235;-78
2022/05/25 07:48:45;;;;;;;3.15;1.20;;;;;21.90;101012.00;;;;10049525;29;20703;-78
2022/05/25 07:53:58;;;;;;;2.33;1.00;;;;;22.70;101015.00;;;;10035945;29;20222;-77
2022/05/25 07:59:02;;;;;;;5.50;1.17;;;;;23.50;101019.00;;;;10053042;29;20207;-78
2022/05/25 08:09:25;;;;;;;1.52;0.95;;;;;21.30;101033.00;;;;10051558;29;20272;-78
2022/05/25 08:14:29;;;;;;;3.13;1.20;;;;;22.10;101033.00;;;;10058286;29;20193;-78
2022/05/25 08:19:31;;;;;;;5.28;1.10;;;;;22.90;101044.00;;;;10051286;29;20205;-78
2022/05/25 08:24:33;;;;;;;3.30;1.20;;;;;23.40;101044.00;;;;10040697;29;20253;-78
2022/05/25 08:29:39;;;;;;;2.63;1.00;;;;;23.70;101039.00;;;;10029715;29;20212;-79
2022/05/25 08:34:41;;;;;;;1.90;1.10;;;;;24.20;101043.00;;;;10048687;29;20197;-78
2022/05/25 08:39:45;;;;;;;4.72;1.20;;;;;23.40;101046.00;;;;10030168;29;20201;-78
2022/05/25 08:44:49;;;;;;;3.33;1.17;;;;;23.70;101048.00;;;;10012633;29;20226;-79
2022/05/25 08:49:51;;;;;;;2.92;1.23;;;;;22.90;101045.00;;;;9996198;29;20838;-78
2022/05/25 08:54:54;;;;;;;4.18;1.48;;;;;23.80;101032.00;;;;10018025;29;20182;-78
2022/05/25 09:00:06;;;;;;;3.78;1.13;;;;;24.40;101028.00;;;;10017606;29;20208;-79
2022/05/25 09:05:29;;;;;;;3.20;1.27;;;;;25.60;101032.00;;;;10017562;29;20692;-80
2022/05/25 09:10:46;;;;;;;3.58;0.90;;;;;25.20;101049.00;;;;10033253;29;20205;-78
2022/05/25 09:16:37;;;;;;;2.80;0.70;;;;;24.10;101035.00;;;;10048798;29;20221;-79
2022/05/25 09:21:19;;;;;;;3.15;1.30;;;;;24.50;101037.00;;;;10013450;29;20231;-78
2022/05/25 09:26:22;;;;;;;1.40;0.60;;;;;24.30;101054.00;;;;10048090;29;20252;-78
2022/05/25 09:31:31;;;;;;;4.55;0.80;;;;;23.30;101040.00;;;;10026262;29;20609;-79
2022/05/25 09:36:45;;;;;;;2.65;1.05;;;;;24.80;101040.00;;;;10030379;29;20209;-78
2022/05/25 09:41:54;;;;;;;3.03;0.73;;;;;26.70;101044.00;;;;10028673;29;20211;-79
2022/05/25 09:47:04;;;;;;;3.60;1.05;;;;;27.50;101041.00;;;;10027946;29;20236;-79
2022/05/25 09:52:14;;;;;;;1.83;0.80;;;;;28.30;101046.00;;;;10007005;29;20413;-79
2022/05/25 09:57:35;;;;;;;1.50;0.60;;;;;27.80;101046.00;;;;10030871;29;20196;-80
2022/05/25 10:02:58;;;;;;;2.13;1.10;;;;;27.00;101044.00;;;;10013692;29;20224;-79
2022/05/25 10:08:06;;;;;;;4.80;0.70;;;;;28.20;101039.00;;;;10029262;29;20557;-79
2022/05/25 10:13:36;;;;;;;3.65;0.63;;;;;27.60;101054.00;;;;10030033;29;20200;-79
2022/05/25 10:18:42;;;;;;;2.58;0.73;;;;;28.00;101048.00;;;;10024492;29;20287;-79
2022/05/25 10:23:44;;;;;;;3.65;0.77;;;;;27.40;101062.00;;;;10031455;29;20739;-78
2022/05/25 10:28:54;;;;;;;2.30;0.60;;;;;26.30;101064.00;;;;10035592;29;20207;-79
2022/05/25 10:39:54;;;;;;;3.47;0.80;;;;;26.20;101047.00;;;;10044065;29;20279;-78
2022/05/25 10:44:59;;;;;;;0.98;0.50;;;;;26.70;101045.00;;;;10039354;29;20344;-76
2022/05/25 10:50:07;;;;;;;1.48;0.70;;;;;26.30;101046.00;;;;10027271;29;20201;-79
2022/05/25 10:55:09;;;;;;;2.40;0.70;;;;;25.90;101019.00;;;;10020338;29;20560;-78
2022/05/25 11:00:16;;;;;;;2.13;0.70;;;;;27.70;101032.00;;;;10018043;29;20264;-78
2022/05/25 11:05:24;;;;;;;1.90;0.70;;;;;28.60;101032.00;;;;10061863;29;20272;-79
2022/05/25 11:10:49;;;;;;;1.85;0.60;;;;;29.10;101024.00;;;;10043943;29;20193;-79
2022/05/25 11:16:21;;;;;;;2.47;0.63;;;;;29.40;101046.00;;;;10041897;29;20606;-78
2022/05/25 11:21:57;;;;;;;2.15;0.63;;;;;27.30;101050.00;;;;10033071;29;20204;-78
2022/05/25 11:27:25;;;;;;;1.92;0.70;;;;;27.30;101036.00;;;;10039435;29;20225;-79
2022/05/25 11:32:39;;;;;;;4.43;0.90;;;;;27.60;101050.00;;;;10020519;29;20546;-78
2022/05/25 11:38:17;;;;;;;3.30;0.68;;;;;24.70;101050.00;;;;10046367;29;20193;-78
2022/05/25 11:43:38;;;;;;;3.83;0.60;;;;;23.60;101042.00;;;;10052150;29;20224;-79
2022/05/25 11:49:26;;;;;;;2.05;0.70;;;;;23.00;101038.00;;;;10044634;29;20679;-77
2022/05/25 11:54:50;;;;;;;3.45;0.90;;;;;24.60;101031.00;;;;10020362;29;20237;-78
2022/05/25 12:00:06;;;;;;;1.20;0.50;;;;;24.50;101036.00;;;;9995384;29;20203;-78
2022/05/25 12:05:25;;;;;;;3.72;1.00;;;;;24.60;101024.00;;;;10031773;29;20573;-79
2022/05/25 12:10:39;;;;;;;2.20;1.00;;;;;25.10;101036.00;;;;10036482;29;20186;-79
2022/05/25 12:16:03;;;;;;;3.05;0.80;;;;;25.40;101035.00;;;;10003349;29;20248;-79
2022/05/25 12:21:32;;;;;;;3.17;0.82;;;;;24.10;101035.00;;;;10018422;29;20287;-78
2022/05/25 12:26:37;;;;;;;3.55;1.15;;;;;25.00;101031.00;;;;10038087;29;20221;-79
2022/05/25 12:31:42;;;;;;;4.53;0.60;;;;;27.30;101013.00;;;;10034010;29;20201;-78
2022/05/25 12:36:44;;;;;;;4.85;0.90;;;;;26.80;101043.00;;;;10013897;29;20680;-79
2022/05/25 12:41:47;;;;;;;4.57;0.63;;;;;27.40;101027.00;;;;10057531;29;20213;-79
2022/05/25 12:52:26;;;;;;;2.70;0.70;;;;;23.20;101054.00;;;;10015836;29;20697;-80
2022/05/25 12:57:44;;;;;;;2.17;0.60;;;;;22.20;101035.00;;;;10026127;29;20209;-78
2022/05/25 13:02:47;;;;;;;3.97;1.00;;;;;24.00;101033.00;;;;10032722;29;20340;-79
2022/05/25 13:07:49;;;;;;;2.20;0.68;;;;;23.90;101035.00;;;;10017014;29;20240;-80
2022/05/25 13:12:56;;;;;;;2.10;0.80;;;;;22.90;101037.00;;;;10062105;29;20204;-78
2022/05/25 13:17:58;;;;;;;3.58;0.80;;;;;24.10;101048.00;;;;10041546;29;20211;-79
2022/05/25 13:23:03;;;;;;;1.98;1.00;;;;;26.10;101042.00;;;;10023117;29;20253;-78
2022/05/25 13:28:34;;;;;;;3.88;1.05;;;;;25.40;101045.00;;;;10040261;29;20550;-77
2022/05/25 13:33:43;;;;;;;2.60;0.82;;;;;23.50;101050.00;;;;10026661;29;20201;-78
2022/05/25 13:38:54;;;;;;;4.80;1.23;;;;;23.90;101050.00;;;;10024050;29;20193;-79
2022/05/25 13:43:59;;;;;;;5.15;0.95;;;;;24.90;101038.00;;;;10041842;29;20668;-79
2022/05/25 13:49:03;;;;;;;4.18;1.00;;;;;25.50;101048.00;;;;10023003;29;20274;-78
2022/05/25 13:54:19;;;;;;;4.38;0.80;;;;;24.60;101049.00;;;;10024528;29;20199;-77
2022/05/25 13:59:41;;;;;;;2.33;1.05;;;;;23.60;101045.00;;;;10021580;29;20198;-77
2022/05/25 14:04:45;;;;;;;2.25;0.90;;;;;23.20;101042.00;;;;10056000;29;20281;-77
2022/05/25 14:15:17;;;;;;;3.63;1.38;;;;;22.40;101050.00;;;;10023640;29;20220;-78
2022/05/25 14:20:21;;;;;;;1.65;0.80;;;;;20.90;101068.00;;;;10027855;29;20669;-78
2022/05/25 14:25:26;;;;;;;4.72;1.10;;;;;20.80;101060.00;;;;10025560;29;20221;-77
2022/05/25 14:30:33;;;;;;;1.33;0.60;;;;;21.50;101051.00;;;;10027891;29;20756;-78
2022/05/25 14:35:39;;;;;;;4.85;0.98;;;;;22.30;101046.00;;;;10000328;29;20209;-77
2022/05/25 14:40:51;;;;;;;3.35;0.80;;;;;23.10;101056.00;;;;10040034;29;20210;-77
2022/05/25 14:46:30;;;;;;;3.13;0.80;;;;;22.70;101063.00;;;;10040172;29;20212;-77
2022/05/25 14:51:42;;;;;;;2.65;0.70;;;;;22.40;101053.00;;;;10012348;29;20247;-77
2022/05/25 14:56:48;;;;;;;6.45;0.95;;;;;23.10;101064.00;;;;10035035;29;20279;-78
2022/05/25 15:01:55;;;;;;;4.15;0.98;;;;;22.70;101068.00;;;;10008329;29;20730;-78
2022/05/25 15:06:58;;;;;;;4.53;0.95;;;;;22.30;101078.00;;;;9991137;29;20292;-77
2022/05/25 15:12:16;;;;;;;1.38;0.80;;;;;21.60;101069.00;;;;10021362;29;20218;-77
2022/05/25 15:22:44;;;;;;;2.28;0.85;;;;;21.50;101073.00;;;;10001162;29;20193;-78
2022/05/25 15:28:09;;;;;;;4.15;0.90;;;;;21.60;101076.00;;;;10011067;29;20213;-77
2022/05/25 15:33:13;;;;;;;2.40;0.80;;;;;21.30;101084.00;;;;10008374;29;20661;-78
2022/05/25 15:38:15;;;;;;;3.42;0.90;;;;;20.70;101092.00;;;;10018555;29;20194;-77
2022/05/25 15:43:18;;;;;;;2.80;0.98;;;;;20.10;101094.00;;;;10020099;29;20229;-77
2022/05/25 15:48:23;;;;;;;3.13;0.60;;;;;19.60;101103.00;;;;10041189;29;20223;-76
2022/05/25 15:53:25;;;;;;;4.22;0.95;;;;;19.50;101107.00;;;;10021982;29;20193;-78
2022/05/25 15:58:27;;;;;;;2.55;0.90;;;;;19.20;101099.00;;;;10026170;29;20212;-77
2022/05/25 16:03:38;;;;;;;2.78;1.15;;;;;18.90;101111.00;;;;10000168;29;20252;-78
2022/05/25 16:14:03;;;;;;;5.30;1.20;;;;;18.80;101121.00;;;;10044686;29;20253;-77
2022/05/25 16:19:05;;;;;;;2.17;0.90;;;;;18.60;101131.00;;;;10032586;29;20291;-78
2022/05/25 16:24:08;;;;;;;3.42;1.13;;;;;18.70;101118.00;;;;10031300;29;20644;-77
2022/05/25 16:29:12;;;;;;;4.88;1.40;;;;;18.50;101119.00;;;;10025965;29;20216;-78
2022/05/25 16:34:15;;;;;;;4.57;1.20;;;;;18.50;101125.00;;;;10027817;29;20597;-79
2022/05/25 16:39:18;;;;;;;3.95;1.15;;;;;18.40;101118.00;;;;10010682;29;20198;-78
2022/05/25 16:44:21;;;;;;;1.77;1.00;;;;;18.50;101123.00;;;;9981818;29;20297;-78
2022/05/25 16:49:23;;;;;;;3.50;0.90;;;;;18.50;101126.00;;;;9982481;29;20640;-78
2022/05/25 16:54:25;;;;;;;2.20;0.85;;;;;18.40;101126.00;;;;9988706;29;20249;-78
2022/05/25 16:59:29;;;;;;;2.45;1.08;;;;;18.20;101128.00;;;;10016377;29;20777;-78
2022/05/25 17:04:31;;;;;;;4.72;1.40;;;;;18.00;101130.00;;;;10032015;29;20626;-78
2022/05/25 17:09:33;;;;;;;8.32;1.17;;;;;17.80;101129.00;;;;10048999;29;20562;-77
2022/05/25 17:14:35;;;;;;;3.20;0.90;;;;;17.60;101141.00;;;;10011201;29;20293;-78
2022/05/25 17:24:57;;;;;;;2.58;1.02;;;;;17.60;101130.00;;;;10032583;29;20217;-78
2022/05/25 17:30:00;;;;;;;4.28;0.80;;;;;17.70;101136.00;;;;10048328;29;20248;-78
2022/05/25 17:35:03;;;;;;;3.65;1.50;;;;;17.70;101139.00;;;;10037191;29;20269;-79
2022/05/25 17:45:27;;;;;;;3.50;1.38;;;;;17.80;101145.00;;;;10021432;29;20216;-78
2022/05/25 17:50:33;;;;;;;3.55;0.93;;;;;17.70;101148.00;;;;10016609;29;20193;-78
2022/05/25 17:55:38;;;;;;;4.47;1.30;;;;;17.60;101146.00;;;;10016481;29;20193;-78
2022/05/25 18:00:41;;;;;;;3.83;1.27;;;;;17.40;101156.00;;;;10032401;29;20209;-78
2022/05/25 18:05:45;;;;;;;3.45;0.93;;;;;17.20;101158.00;;;;10044446;29;20235;-78
2022/05/25 18:10:47;;;;;;;6.35;1.08;;;;;17.10;101161.00;;;;10032958;29;20550;-77
2022/05/25 18:15:49;;;;;;;3.13;0.75;;;;;17.00;101157.00;;;;10031233;29;20207;-78
2022/05/25 18:20:51;;;;;;;2.28;1.10;;;;;16.90;101153.00;;;;10030755;29;20570;-79
2022/05/25 18:25:53;;;;;;;2.20;1.05;;;;;16.90;101153.00;;;;10020366;29;20224;-78
2022/05/25 18:30:55;;;;;;;3.60;0.82;;;;;16.80;101158.00;;;;10023214;29;20288;-77
2022/05/25 18:35:56;;;;;;;4.38;1.13;;;;;16.70;101168.00;;;;10031776;29;20201;-78
2022/05/25 18:40:59;;;;;;;2.90;1.20;;;;;16.70;101165.00;;;;10030452;29;20253;-78
2022/05/25 18:46:08;;;;;;;4.50;1.02;;;;;16.60;101170.00;;;;10047378;29;20227;-78
2022/05/25 18:51:10;;;;;;;3.87;1.10;;;;;16.60;101170.00;;;;10046493;29;20305;-78
2022/05/25 18:56:12;;;;;;;3.88;1.10;;;;;16.50;101173.00;;;;10030650;29;20205;-79
2022/05/25 19:01:19;;;;;;;4.10;1.00;;;;;16.50;101175.00;;;;10038934;29;20201;-79
2022/05/25 19:06:21;;;;;;;5.07;1.20;;;;;16.50;101172.00;;;;10045683;29;20208;-77
2022/05/25 19:11:23;;;;;;;3.13;1.10;;;;;16.40;101169.00;;;;10030364;29;20205;-78
2022/05/25 19:16:29;;;;;;;4.57;1.37;;;;;16.40;101171.00;;;;9990180;29;20193;-78
2022/05/25 19:21:54;;;;;;;2.42;1.23;;;;;16.40;101178.00;;;;10000372;29;20206;-77
2022/05/25 19:26:59;;;;;;;4.68;1.20;;;;;16.30;101188.00;;;;10023778;29;20339;-78
2022/05/25 19:32:01;;;;;;;2.60;1.33;;;;;16.30;101202.00;;;;10037304;29;20208;-77
2022/05/25 19:37:04;;;;;;;2.47;1.10;;;;;16.20;101203.00;;;;10037090;29;20258;-78
2022/05/25 19:42:15;;;;;;;1.43;0.90;;;;;16.10;101203.00;;;;10037270;29;20201;-77
2022/05/25 19:47:20;;;;;;;2.77;1.10;;;;;16.00;101222.00;;;;9985366;29;20218;-78
2022/05/25 19:52:22;;;;;;;2.13;0.90;;;;;15.90;101235.00;;;;9999123;29;20205;-78
2022/05/25 19:57:35;;;;;;;5.07;1.20;;;;;15.90;101229.00;;;;9984432;29;20780;-78
2022/05/25 20:02:37;;;;;;;1.13;0.60;;;;;15.80;101237.00;;;;10024078;29;20243;-79
2022/05/25 20:07:40;;;;;;;2.83;0.60;;;;;15.70;101248.00;;;;10021619;29;20237;-77
2022/05/25 20:12:42;;;;;;;1.20;0.80;;;;;15.60;101257.00;;;;10021639;29;20622;-78
2022/05/25 20:17:48;;;;;;;1.93;0.80;;;;;15.60;101258.00;;;;10045798;29;20253;-77
2022/05/25 20:22:51;;;;;;;1.90;0.60;;;;;15.60;101261.00;;;;10035717;29;20201;-78
2022/05/25 20:27:54;;;;;;;1.97;0.90;;;;;15.50;101268.00;;;;10019404;29;20598;-78
2022/05/25 20:32:56;;;;;;;2.17;1.10;;;;;15.50;101267.00;;;;10041653;29;20220;-79
2022/05/25 20:37:58;;;;;;;3.37;0.87;;;;;15.50;101266.00;;;;10020746;29;20288;-79
2022/05/25 20:43:00;;;;;;;2.13;0.90;;;;;15.50;101260.00;;;;10051786;29;20208;-78
2022/05/25 20:48:03;;;;;;;3.67;1.40;;;;;15.50;101277.00;;;;10019777;29;20214;-77
2022/05/25 20:53:05;;;;;;;1.73;1.00;;;;;15.40;101271.00;;;;9981644;29;20202;-79
2022/05/25 20:58:07;;;;;;;5.37;0.97;;;;;15.40;101268.00;;;;9997250;29;20284;-78
2022/05/25 21:03:13;;;;;;;1.97;0.90;;;;;15.40;101273.00;;;;10025718;29;20307;-78
2022/05/25 21:08:15;;;;;;;3.87;1.20;;;;;15.40;101272.00;;;;10034681;29;20246;-78
2022/05/25 21:13:18;;;;;;;1.97;0.77;;;;;15.40;101281.00;;;;10033467;29;20201;-78
2022/05/25 21:18:21;;;;;;;3.60;1.00;;;;;15.40;101282.00;;;;9996881;29;20266;-77
2022/05/25 21:23:23;;;;;;;3.13;1.20;;;;;15.40;101287.00;;;;9998338;29;20234;-78
2022/05/25 21:28:25;;;;;;;2.13;1.00;;;;;15.40;101291.00;;;;10004452;29;20208;-78
2022/05/25 21:33:33;;;;;;;4.03;0.80;;;;;15.40;101298.00;;;;10038385;29;20572;-78
2022/05/25 21:38:35;;;;;;;2.80;1.17;;;;;15.30;101306.00;;;;10031597;29;20201;-77
2022/05/25 21:43:37;;;;;;;2.17;1.33;;;;;15.30;101297.00;;;;9985515;29;20616;-79
2022/05/25 21:53:59;;;;;;;2.40;1.30;;;;;15.30;101294.00;;;;10046874;29;20201;-78
2022/05/25 21:59:03;;;;;;;3.00;1.40;;;;;15.20;101295.00;;;;10032531;29;20287;-77
2022/05/25 22:04:05;;;;;;;6.27;1.63;;;;;15.20;101298.00;;;;10055714;29;20256;-78
2022/05/25 22:09:08;;;;;;;3.50;1.47;;;;;15.20;101302.00;;;;10061309;29;20212;-78
2022/05/25 22:14:10;;;;;;;1.70;1.40;;;;;15.20;101303.00;;;;10018795;29;20668;-78
2022/05/25 22:19:11;;;;;;;1.97;1.50;;;;;15.10;101303.00;;;;10030704;29;20304;-78
2022/05/25 22:24:14;;;;;;;1.57;1.47;;;;;15.10;101320.00;;;;10027448;29;20208;-78
2022/05/25 22:29:16;;;;;;;3.47;1.40;;;;;15.10;101322.00;;;;10022239;29;20217;-78
2022/05/25 22:34:18;;;;;;;4.53;2.00;;;;;15.10;101319.00;;;;10030603;29;20205;-78
2022/05/25 22:39:21;;;;;;;2.37;2.03;;;;;15.10;101329.00;;;;9992598;29;20186;-78
2022/05/25 22:44:26;;;;;;;3.83;2.00;;;;;15.10;101328.00;;;;9991956;29;20677;-77
2022/05/25 22:49:28;;;;;;;3.50;2.13;;;;;15.10;101332.00;;;;9995770;29;20233;-78
2022/05/25 22:54:30;;;;;;;4.87;1.70;;;;;15.00;101336.00;;;;9983446;29;20204;-78
2022/05/25 22:59:33;;;;;;;4.37;2.40;;;;;15.00;101342.00;;;;10027274;29;20209;-77
2022/05/25 23:04:34;;;;;;;3.60;1.90;;;;;15.00;101357.00;;;;10031762;29;20264;-79
2022/05/25 23:09:37;;;;;;;1.90;1.63;;;;;15.00;101340.00;;;;10031314;29;20233;-78
2022/05/25 23:14:40;;;;;;;2.67;1.60;;;;;15.00;101356.00;;;;10030800;29;20201;-77
2022/05/25 23:19:44;;;;;;;1.93;1.30;;;;;14.90;101351.00;;;;10029801;29;20226;-78
2022/05/25 23:25:02;;;;;;;6.67;1.70;;;;;14.90;101355.00;;;;10063946;29;20193;-78
2022/05/25 23:30:06;;;;;;;1.60;1.30;;;;;14.90;101349.00;;;;10016607;29;20216;-78
2022/05/25 23:35:11;;;;;;;2.43;1.40;;;;;14.90;101366.00;;;;10032622;29;20705;-79
2022/05/25 23:40:13;;;;;;;2.90;1.73;;;;;14.90;101374.00;;;;10031728;29;20208;-79
2022/05/25 23:45:15;;;;;;;3.90;2.07;;;;;14.90;101369.00;;;;10031130;29;20216;-78
2022/05/25 23:50:17;;;;;;;5.27;2.57;;;;;14.90;101374.00;;;;10030673;29;20201;-78
2022/05/25 23:55:20;;;;;;;4.90;2.17;;;;;14.90;101375.00;;;;10018559;29;20523;-77
